createdAt,value
2023-05-05T00:01:08.766Z,2.92
2023-05-05T00:03:35.889Z,2.83
2023-05-05T00:06:02.916Z,3.65
2023-05-05T00:08:29.781Z,3.15
2023-05-05T00:10:57.387Z,3.35
2023-05-05T00:13:24.303Z,3.92
2023-05-05T00:15:53.456Z,3.83
2023-05-05T00:18:21.219Z,3.55
2023-05-05T00:20:48.152Z,2.67
2023-05-05T00:23:15.693Z,2.90
2023-05-05T00:25:42.191Z,3.08
2023-05-05T00:28:08.758Z,2.83
2023-05-05T00:30:37.186Z,2.90
2023-05-05T00:33:04.160Z,2.70
2023-05-05T00:35:30.686Z,2.83
2023-05-05T00:37:57.159Z,3.28
2023-05-05T00:40:25.029Z,5.10
2023-05-05T00:42:53.484Z,2.92
2023-05-05T00:45:20.327Z,2.83
2023-05-05T00:47:54.673Z,3.22
2023-05-05T00:50:26.155Z,2.83
2023-05-05T00:52:55.291Z,2.72
2023-05-05T00:55:22.178Z,3.00
2023-05-05T00:57:49.218Z,2.70
2023-05-05T01:00:16.757Z,2.95
2023-05-05T01:02:44.708Z,3.13
2023-05-05T01:05:14.259Z,3.40
2023-05-05T01:07:43.576Z,2.22
2023-05-05T01:10:32.041Z,2.67
2023-05-05T01:13:25.688Z,2.63
2023-05-05T01:16:00.918Z,2.88
2023-05-05T01:18:36.740Z,2.92
2023-05-05T01:21:03.214Z,3.38
2023-05-05T01:24:08.154Z,3.50
2023-05-05T01:26:53.789Z,3.83
2023-05-05T01:29:31.831Z,3.88
2023-05-05T01:32:15.795Z,3.47
2023-05-05T01:34:53.426Z,3.85
2023-05-05T01:37:24.486Z,3.42
2023-05-05T01:39:56.281Z,3.72
2023-05-05T01:42:25.197Z,2.92
2023-05-05T01:44:54.178Z,3.97
2023-05-05T01:47:23.057Z,3.45
2023-05-05T01:49:50.578Z,3.50
2023-05-05T01:52:18.221Z,3.35
2023-05-05T01:54:46.868Z,3.83
2023-05-05T01:57:15.556Z,4.03
2023-05-05T01:59:42.351Z,3.63
2023-05-05T02:02:13.527Z,3.45
2023-05-05T02:04:43.639Z,3.30
2023-05-05T02:07:12.672Z,3.08
2023-05-05T02:09:40.717Z,3.22
2023-05-05T02:12:08.623Z,3.20
2023-05-05T02:14:36.892Z,2.83
2023-05-05T02:17:04.124Z,3.05
2023-05-05T02:19:37.918Z,2.88
2023-05-05T02:22:04.436Z,2.88
2023-05-05T02:24:30.937Z,3.15
2023-05-05T02:27:00.257Z,2.90
2023-05-05T02:29:34.684Z,3.25
2023-05-05T02:32:14.228Z,2.70
2023-05-05T02:34:43.448Z,2.83
2023-05-05T02:37:19.866Z,2.33
2023-05-05T02:40:02.601Z,2.30
2023-05-05T02:42:36.759Z,2.13
2023-05-05T02:45:13.507Z,2.42
2023-05-05T02:47:42.977Z,1.95
2023-05-05T02:50:10.590Z,2.63
2023-05-05T02:52:41.836Z,2.05
2023-05-05T02:55:09.797Z,1.95
2023-05-05T02:57:55.804Z,2.40
2023-05-05T03:00:50.381Z,2.00
2023-05-05T03:03:28.639Z,1.73
2023-05-05T03:06:16.588Z,1.85
2023-05-05T03:08:50.957Z,1.75
2023-05-05T03:11:29.108Z,1.52
2023-05-05T03:14:05.436Z,2.42
2023-05-05T03:19:00.615Z,1.73
2023-05-05T03:21:27.792Z,1.40
2023-05-05T03:23:54.467Z,1.65
2023-05-05T03:26:22.136Z,1.60
2023-05-05T03:28:48.726Z,1.45
2023-05-05T03:31:21.052Z,1.38
2023-05-05T03:33:51.946Z,1.38
2023-05-05T03:36:22.099Z,1.30
2023-05-05T03:38:48.831Z,1.58
2023-05-05T03:41:15.905Z,2.10
2023-05-05T03:43:42.435Z,2.05
2023-05-05T03:46:10.160Z,1.67
2023-05-05T03:48:36.835Z,2.15
2023-05-05T03:51:03.443Z,1.58
2023-05-05T03:53:32.344Z,2.15
2023-05-05T03:56:00.708Z,2.10
2023-05-05T03:58:27.331Z,2.20
2023-05-05T04:00:53.925Z,1.52
2023-05-05T04:03:20.997Z,2.35
2023-05-05T04:05:47.933Z,1.85
2023-05-05T04:08:14.561Z,2.03
2023-05-05T04:10:41.056Z,1.75
2023-05-05T04:13:08.613Z,2.47
2023-05-05T04:15:35.957Z,2.78
2023-05-05T04:18:04.527Z,2.72
2023-05-05T04:20:31.238Z,2.47
2023-05-05T04:22:57.801Z,2.55
2023-05-05T04:25:24.496Z,2.40
2023-05-05T04:27:51.087Z,1.75
2023-05-05T04:30:17.583Z,2.42
2023-05-05T04:32:44.749Z,2.60
2023-05-05T04:35:11.417Z,2.95
2023-05-05T04:37:38.189Z,2.50
2023-05-05T04:40:05.306Z,2.35
2023-05-05T04:42:33.519Z,1.75
2023-05-05T04:45:00.993Z,1.90
2023-05-05T04:47:29.238Z,2.00
2023-05-05T04:49:56.031Z,2.08
2023-05-05T04:52:22.700Z,2.42
2023-05-05T04:54:51.475Z,2.20
2023-05-05T04:57:17.902Z,2.08
2023-05-05T04:59:44.329Z,2.28
2023-05-05T05:02:10.849Z,1.77
2023-05-05T05:04:37.324Z,1.98
2023-05-05T05:07:03.747Z,2.03
2023-05-05T05:09:30.361Z,1.92
2023-05-05T05:12:03.031Z,2.00
2023-05-05T05:14:30.116Z,1.45
2023-05-05T05:16:56.623Z,2.33
2023-05-05T05:19:24.085Z,2.10
2023-05-05T05:21:51.028Z,2.10
2023-05-05T05:24:17.625Z,3.00
2023-05-05T05:26:44.158Z,2.88
2023-05-05T05:29:10.696Z,2.28
2023-05-05T05:31:37.252Z,2.33
2023-05-05T05:34:04.154Z,2.92
2023-05-05T05:36:31.703Z,3.03
2023-05-05T05:38:58.206Z,3.20
2023-05-05T05:41:25.676Z,2.83
2023-05-05T05:43:52.207Z,3.00
2023-05-05T05:46:19.251Z,3.00
2023-05-05T05:48:46.458Z,3.05
2023-05-05T05:51:13.514Z,3.58
2023-05-05T05:53:40.292Z,3.05
2023-05-05T05:56:08.970Z,3.40
2023-05-05T05:58:36.013Z,4.47
2023-05-05T06:01:03.903Z,3.08
2023-05-05T06:03:31.310Z,4.00
2023-05-05T06:05:59.174Z,3.72
2023-05-05T06:08:26.841Z,4.30
2023-05-05T06:10:54.786Z,3.80
2023-05-05T06:13:21.483Z,3.80
2023-05-05T06:15:50.846Z,3.70
2023-05-05T06:18:17.969Z,3.67
2023-05-05T06:20:44.810Z,3.20
2023-05-05T06:23:13.626Z,3.30
2023-05-05T06:25:44.846Z,4.43
2023-05-05T06:28:11.490Z,3.25
2023-05-05T06:30:37.938Z,3.67
2023-05-05T06:33:04.407Z,2.95
2023-05-05T06:35:30.868Z,2.92
2023-05-05T06:37:57.437Z,2.72
2023-05-05T06:40:23.866Z,2.42
2023-05-05T06:42:51.699Z,2.10
2023-05-05T06:45:23.067Z,2.47
2023-05-05T06:47:49.621Z,2.67
2023-05-05T06:50:16.192Z,2.72
2023-05-05T06:52:42.702Z,3.40
2023-05-05T06:55:09.922Z,3.20
2023-05-05T06:57:36.341Z,2.63
2023-05-05T07:00:05.691Z,2.85
2023-05-05T07:02:33.554Z,2.63
2023-05-05T07:05:11.106Z,3.67
2023-05-05T07:07:39.730Z,2.75
2023-05-05T07:10:07.577Z,3.03
2023-05-05T07:12:34.210Z,2.25
2023-05-05T07:15:04.853Z,2.75
2023-05-05T07:17:36.089Z,1.92
2023-05-05T07:20:02.983Z,2.03
2023-05-05T07:22:29.453Z,1.50
2023-05-05T07:24:56.014Z,1.75
2023-05-05T07:27:22.796Z,1.55
2023-05-05T07:29:50.655Z,1.65
2023-05-05T07:32:17.111Z,1.55
2023-05-05T07:34:43.621Z,1.70
2023-05-05T07:37:10.588Z,1.13
2023-05-05T07:39:37.066Z,0.98
2023-05-05T07:42:03.711Z,1.02
2023-05-05T07:44:30.580Z,1.27
2023-05-05T07:46:57.076Z,1.13
2023-05-05T07:49:23.535Z,1.58
2023-05-05T07:51:51.259Z,1.05
2023-05-05T07:54:18.027Z,0.85
2023-05-05T07:56:44.668Z,0.95
2023-05-05T07:59:11.846Z,0.70
2023-05-05T08:01:39.963Z,0.85
2023-05-05T08:04:06.540Z,1.20
2023-05-05T08:06:33.180Z,0.68
2023-05-05T08:09:00.865Z,1.52
2023-05-05T08:11:29.471Z,1.33
2023-05-05T08:13:56.390Z,0.70
2023-05-05T08:16:22.900Z,0.82
2023-05-05T08:18:51.960Z,0.75
2023-05-05T08:21:18.562Z,0.55
2023-05-05T08:23:45.112Z,0.68
2023-05-05T08:26:11.582Z,1.10
2023-05-05T08:28:38.089Z,0.70
2023-05-05T08:31:05.623Z,1.05
2023-05-05T08:33:32.693Z,0.77
2023-05-05T08:36:00.994Z,0.60
2023-05-05T08:38:29.607Z,0.50
2023-05-05T08:40:56.299Z,0.45
2023-05-05T08:43:23.965Z,0.30
2023-05-05T08:45:51.650Z,0.30
2023-05-05T08:48:22.545Z,0.75
2023-05-05T08:50:56.635Z,0.43
2023-05-05T08:54:00.629Z,0.25
2023-05-05T08:56:38.605Z,0.35
2023-05-05T08:59:05.918Z,0.30
2023-05-05T09:01:33.638Z,0.20
2023-05-05T09:04:00.621Z,0.32
2023-05-05T09:06:27.398Z,1.52
2023-05-05T09:08:54.413Z,0.30
2023-05-05T09:11:22.570Z,0.43
2023-05-05T09:13:49.715Z,0.63
2023-05-05T09:16:18.593Z,0.50
2023-05-05T09:18:45.586Z,0.45
2023-05-05T09:21:26.490Z,0.20
2023-05-05T09:24:10.895Z,0.50
2023-05-05T09:26:41.451Z,0.43
2023-05-05T09:29:07.988Z,0.70
2023-05-05T09:31:36.167Z,0.63
2023-05-05T09:34:14.126Z,0.60
2023-05-05T09:36:44.653Z,0.47
2023-05-05T09:39:13.486Z,0.55
2023-05-05T09:41:42.067Z,0.40
2023-05-05T09:44:08.873Z,0.52
2023-05-05T09:46:35.994Z,0.38
2023-05-05T09:49:17.991Z,0.60
2023-05-05T09:54:24.841Z,2.03
2023-05-05T09:56:52.281Z,1.20
2023-05-05T09:59:19.280Z,2.00
2023-05-05T10:01:46.279Z,1.55
2023-05-05T10:04:30.125Z,1.63
2023-05-05T10:06:57.894Z,1.60
2023-05-05T10:09:26.102Z,1.23
2023-05-05T10:11:53.417Z,1.33
2023-05-05T10:14:20.407Z,0.98
2023-05-05T10:16:50.606Z,0.30
2023-05-05T10:19:20.410Z,0.43
2023-05-05T10:21:49.842Z,1.05
2023-05-05T10:24:30.488Z,0.20
2023-05-05T10:27:00.677Z,0.43
2023-05-05T10:29:46.006Z,0.10
2023-05-05T10:32:50.917Z,0.57
2023-05-05T10:35:16.474Z,0.20
2023-05-05T10:37:44.617Z,0.52
2023-05-05T10:40:14.010Z,0.20
2023-05-05T10:42:41.380Z,0.20
2023-05-05T10:45:08.551Z,0.20
2023-05-05T10:47:36.638Z,0.20
2023-05-05T10:50:13.923Z,0.20
2023-05-05T10:52:46.913Z,0.25
2023-05-05T10:55:17.653Z,0.40
2023-05-05T10:57:45.837Z,0.40
2023-05-05T11:00:40.178Z,1.13
2023-05-05T11:03:19.266Z,0.40
2023-05-05T11:06:03.868Z,0.40
2023-05-05T11:08:32.313Z,0.47
2023-05-05T11:10:59.553Z,0.55
2023-05-05T11:13:26.471Z,0.40
2023-05-05T11:15:54.327Z,0.50
2023-05-05T11:18:40.531Z,0.60
2023-05-05T11:21:15.293Z,0.45
2023-05-05T11:23:49.661Z,0.55
2023-05-05T11:26:18.570Z,0.68
2023-05-05T11:29:02.526Z,0.70
2023-05-05T11:31:30.869Z,0.82
2023-05-05T11:34:24.311Z,1.08
2023-05-05T11:36:52.209Z,0.77
2023-05-05T11:39:27.515Z,0.70
2023-05-05T11:42:06.594Z,0.90
2023-05-05T11:44:36.123Z,1.30
2023-05-05T11:47:05.307Z,0.75
2023-05-05T11:49:32.729Z,0.68
2023-05-05T11:52:04.304Z,1.00
2023-05-05T11:54:31.701Z,0.82
2023-05-05T11:57:02.898Z,1.58
2023-05-05T11:59:29.299Z,0.93
2023-05-05T12:01:55.916Z,0.95
2023-05-05T12:04:22.743Z,0.70
2023-05-05T12:06:49.551Z,0.60
2023-05-05T12:09:17.791Z,0.77
2023-05-05T12:11:51.339Z,0.80
2023-05-05T12:14:18.248Z,0.60
2023-05-05T12:17:07.069Z,0.47
2023-05-05T12:19:33.727Z,0.45
2023-05-05T12:22:04.471Z,0.85
2023-05-05T12:24:31.160Z,0.50
2023-05-05T12:27:10.886Z,0.60
2023-05-05T12:29:37.930Z,0.55
2023-05-05T12:32:04.690Z,0.47
2023-05-05T12:34:31.884Z,0.93
2023-05-05T12:36:58.675Z,0.50
2023-05-05T12:39:35.459Z,0.63
2023-05-05T12:42:06.272Z,0.80
2023-05-05T12:44:39.595Z,0.65
2023-05-05T12:47:06.971Z,0.80
2023-05-05T12:49:49.912Z,0.77
2023-05-05T12:52:16.749Z,0.93
2023-05-05T12:54:57.822Z,0.80
2023-05-05T12:57:25.391Z,0.98
2023-05-05T12:59:53.343Z,0.98
2023-05-05T13:02:20.815Z,1.00
2023-05-05T13:04:54.666Z,0.95
2023-05-05T13:07:21.914Z,1.33
2023-05-05T13:09:49.542Z,1.48
2023-05-05T13:12:17.857Z,1.30
2023-05-05T13:14:44.631Z,0.70
2023-05-05T13:17:11.941Z,1.05
2023-05-05T13:19:46.061Z,1.17
2023-05-05T13:22:13.473Z,0.60
2023-05-05T13:24:51.020Z,0.73
2023-05-05T13:27:19.627Z,1.02
2023-05-05T13:29:46.236Z,0.90
2023-05-05T13:32:12.770Z,1.17
2023-05-05T13:34:41.458Z,1.15
2023-05-05T13:37:08.612Z,0.80
2023-05-05T13:39:35.258Z,0.63
2023-05-05T13:42:01.708Z,0.73
2023-05-05T13:44:28.229Z,0.77
2023-05-05T13:46:54.821Z,1.05
2023-05-05T13:49:21.317Z,0.93
2023-05-05T13:51:47.913Z,0.43
2023-05-05T13:54:14.463Z,0.55
2023-05-05T13:56:41.043Z,0.57
2023-05-05T13:59:07.584Z,1.40
2023-05-05T14:01:34.197Z,0.40
2023-05-05T14:04:03.598Z,0.20
2023-05-05T14:06:31.273Z,0.57
2023-05-05T14:08:57.806Z,1.95
2023-05-05T14:11:24.316Z,0.50
2023-05-05T14:13:51.928Z,0.32
2023-05-05T14:16:18.665Z,0.20
2023-05-05T14:18:45.623Z,0.35
2023-05-05T14:21:12.420Z,0.65
2023-05-05T14:23:38.917Z,1.50
2023-05-05T14:26:05.441Z,0.10
2023-05-05T14:28:34.267Z,0.45
2023-05-05T14:31:00.748Z,0.10
2023-05-05T14:33:27.153Z,0.38
2023-05-05T14:35:53.589Z,0.10
2023-05-05T14:38:20.095Z,0.10
2023-05-05T14:40:46.565Z,0.10
2023-05-05T14:43:13.494Z,0.10
2023-05-05T14:45:39.973Z,0.10
2023-05-05T14:48:06.446Z,0.10
2023-05-05T14:50:32.923Z,0.20
2023-05-05T14:53:00.868Z,0.20
2023-05-05T14:55:27.349Z,0.10
2023-05-05T14:57:53.874Z,0.30
2023-05-05T15:00:20.524Z,0.70
2023-05-05T15:02:48.159Z,0.22
2023-05-05T15:05:15.021Z,0.22
2023-05-05T15:07:41.571Z,0.20
2023-05-05T15:10:08.343Z,0.17
2023-05-05T15:12:35.067Z,0.20
2023-05-05T15:15:01.844Z,0.10
2023-05-05T15:17:28.682Z,0.45
2023-05-05T15:19:55.219Z,0.30
2023-05-05T15:22:21.699Z,0.20
2023-05-05T15:24:48.167Z,0.50
2023-05-05T15:27:14.742Z,0.10
2023-05-05T15:29:44.021Z,0.43
2023-05-05T15:32:13.785Z,0.10
2023-05-05T15:34:40.561Z,0.10
2023-05-05T15:37:07.037Z,0.20
2023-05-05T15:39:33.454Z,0.20
2023-05-05T15:42:03.683Z,0.20
2023-05-05T15:44:30.778Z,0.15
2023-05-05T15:46:57.575Z,0.15
2023-05-05T15:49:24.072Z,0.10
2023-05-05T15:51:51.824Z,0.20
2023-05-05T15:54:18.250Z,0.10
2023-05-05T15:56:44.717Z,0.10
2023-05-05T15:59:13.228Z,0.10
2023-05-05T16:01:39.792Z,0.10
2023-05-05T16:04:06.565Z,0.40
2023-05-05T16:06:33.072Z,0.32
2023-05-05T16:09:00.271Z,0.10
2023-05-05T16:11:26.946Z,0.50
2023-05-05T16:13:53.718Z,0.10
2023-05-05T16:16:20.733Z,0.30
2023-05-05T16:18:47.461Z,0.30
2023-05-05T16:21:13.928Z,0.28
2023-05-05T16:23:40.536Z,0.10
2023-05-05T16:26:07.014Z,0.10
2023-05-05T16:28:34.283Z,0.20
2023-05-05T16:31:01.773Z,0.10
2023-05-05T16:33:28.760Z,0.20
2023-05-05T16:35:55.456Z,0.13
2023-05-05T16:38:23.096Z,0.20
2023-05-05T16:40:49.661Z,0.10
2023-05-05T16:43:16.194Z,0.10
2023-05-05T16:45:43.472Z,0.30
2023-05-05T16:48:10.055Z,0.10
2023-05-05T16:50:36.567Z,0.20
2023-05-05T16:53:03.074Z,0.00
2023-05-05T16:55:29.693Z,0.10
2023-05-05T16:57:56.185Z,0.03
2023-05-05T17:00:22.699Z,0.20
2023-05-05T17:02:49.582Z,0.13
2023-05-05T17:05:17.584Z,0.10
2023-05-05T17:07:44.192Z,0.63
2023-05-05T17:10:10.804Z,0.10
2023-05-05T17:12:37.378Z,0.40
2023-05-05T17:15:04.207Z,0.13
2023-05-05T17:17:30.828Z,0.10
2023-05-05T17:19:57.437Z,0.22
2023-05-05T17:22:23.982Z,0.00
2023-05-05T17:24:50.913Z,0.20
2023-05-05T17:27:17.364Z,0.10
2023-05-05T17:29:43.804Z,0.00
2023-05-05T17:32:10.474Z,0.10
2023-05-05T17:34:37.131Z,0.47
2023-05-05T17:37:03.608Z,0.45
2023-05-05T17:39:30.701Z,0.10
2023-05-05T17:41:57.141Z,0.10
2023-05-05T17:44:23.612Z,0.10
2023-05-05T17:46:50.186Z,0.10
2023-05-05T17:49:16.749Z,0.40
2023-05-05T17:51:43.194Z,0.22
2023-05-05T17:54:09.669Z,0.10
2023-05-05T17:56:36.811Z,0.32
2023-05-05T17:59:03.564Z,0.10
2023-05-05T18:01:30.083Z,0.20
2023-05-05T18:03:56.998Z,0.60
2023-05-05T18:06:23.463Z,0.10
2023-05-05T18:08:49.949Z,0.10
2023-05-05T18:11:16.508Z,0.10
2023-05-05T18:13:43.270Z,0.30
2023-05-05T18:16:09.821Z,0.10
2023-05-05T18:18:36.406Z,0.30
2023-05-05T18:21:02.938Z,0.38
2023-05-05T18:23:29.404Z,0.20
2023-05-05T18:25:55.784Z,0.10
2023-05-05T18:28:22.466Z,0.15
2023-05-05T18:30:48.932Z,0.10
2023-05-05T18:33:15.859Z,0.10
2023-05-05T18:35:42.310Z,0.20
2023-05-05T18:38:08.804Z,0.30
2023-05-05T18:40:35.256Z,0.20
2023-05-05T18:43:01.767Z,0.20
2023-05-05T18:45:28.269Z,0.10
2023-05-05T18:47:54.851Z,0.20
2023-05-05T18:50:21.428Z,0.10
2023-05-05T18:52:47.906Z,0.43
2023-05-05T18:55:14.440Z,0.20
2023-05-05T18:57:41.183Z,0.55
2023-05-05T19:00:08.096Z,0.20
2023-05-05T19:02:34.596Z,0.10
2023-05-05T19:05:01.388Z,0.20
2023-05-05T19:07:35.318Z,0.30
2023-05-05T19:10:04.365Z,0.10
2023-05-05T19:12:30.866Z,0.38
2023-05-05T19:14:57.582Z,0.15
2023-05-05T19:17:24.281Z,0.43
2023-05-05T19:19:51.469Z,0.70
2023-05-05T19:22:18.108Z,0.40
2023-05-05T19:24:44.592Z,0.30
2023-05-05T19:27:16.631Z,0.28
2023-05-05T19:29:43.740Z,0.43
2023-05-05T19:32:10.258Z,0.25
2023-05-05T19:34:36.913Z,0.30
2023-05-05T19:37:03.584Z,0.20
2023-05-05T19:39:30.169Z,0.20
2023-05-05T19:41:56.603Z,0.25
2023-05-05T19:44:23.774Z,0.20
2023-05-05T19:46:50.683Z,0.70
2023-05-05T19:49:17.427Z,0.20
2023-05-05T19:51:46.155Z,0.32
2023-05-05T19:54:12.697Z,0.38
2023-05-05T19:56:39.515Z,0.60
2023-05-05T19:59:06.430Z,0.40
2023-05-05T20:01:33.891Z,0.60
2023-05-05T20:04:00.800Z,0.73
2023-05-05T20:06:27.479Z,0.47
2023-05-05T20:08:55.400Z,0.65
2023-05-05T20:11:22.191Z,0.38
2023-05-05T20:13:49.995Z,0.28
2023-05-05T20:16:16.648Z,0.57
2023-05-05T20:18:43.568Z,0.70
2023-05-05T20:21:10.105Z,0.63
2023-05-05T20:23:36.960Z,0.50
2023-05-05T20:26:04.488Z,0.32
2023-05-05T20:28:31.766Z,0.35
2023-05-05T20:31:00.754Z,0.32
2023-05-05T20:33:28.340Z,0.30
2023-05-05T20:35:54.837Z,0.80
2023-05-05T20:38:21.297Z,0.40
2023-05-05T20:40:47.784Z,0.30
2023-05-05T20:43:14.474Z,0.73
2023-05-05T20:45:41.088Z,0.35
2023-05-05T20:48:09.853Z,0.38
2023-05-05T20:50:42.770Z,0.30
2023-05-05T20:53:11.305Z,0.30
2023-05-05T20:55:37.756Z,0.60
2023-05-05T20:58:05.364Z,0.43
2023-05-05T21:00:32.055Z,0.40
2023-05-05T21:02:59.024Z,0.70
2023-05-05T21:05:25.877Z,0.63
2023-05-05T21:07:53.591Z,0.50
2023-05-05T21:10:21.325Z,0.73
2023-05-05T21:12:47.908Z,0.60
2023-05-05T21:15:16.496Z,0.70
2023-05-05T21:17:43.094Z,0.55
2023-05-05T21:20:10.428Z,0.45
2023-05-05T21:22:37.122Z,0.57
2023-05-05T21:25:17.434Z,0.63
2023-05-05T21:27:44.240Z,0.70
2023-05-05T21:30:11.626Z,0.85
2023-05-05T21:32:39.830Z,0.80
2023-05-05T21:35:07.836Z,0.88
2023-05-05T21:37:37.839Z,0.63
2023-05-05T21:40:05.867Z,0.75
2023-05-05T21:42:32.313Z,0.80
2023-05-05T21:44:58.786Z,0.63
2023-05-05T21:47:26.794Z,0.73
2023-05-05T21:49:53.331Z,1.63
2023-05-05T21:52:19.745Z,0.88
2023-05-05T21:54:46.129Z,0.63
2023-05-05T21:57:12.572Z,0.80
2023-05-05T21:59:39.034Z,0.80
2023-05-05T22:02:05.656Z,1.27
2023-05-05T22:04:32.261Z,0.90
2023-05-05T22:06:58.694Z,1.02
2023-05-05T22:09:25.291Z,1.30
2023-05-05T22:11:51.945Z,0.77
2023-05-05T22:14:18.606Z,1.00
2023-05-05T22:16:45.311Z,1.05
2023-05-05T22:19:11.877Z,1.27
2023-05-05T22:21:38.356Z,0.85
2023-05-05T22:24:07.005Z,0.90
2023-05-05T22:26:33.656Z,0.77
2023-05-05T22:29:00.311Z,1.20
2023-05-05T22:31:26.868Z,1.17
2023-05-05T22:33:53.445Z,1.80
2023-05-05T22:36:20.033Z,1.30
2023-05-05T22:38:46.544Z,1.15
2023-05-05T22:41:13.894Z,1.70
2023-05-05T22:43:40.330Z,1.30
2023-05-05T22:46:06.809Z,1.50
2023-05-05T22:48:33.337Z,1.30
2023-05-05T22:50:59.930Z,1.70
2023-05-05T22:53:26.455Z,1.38
2023-05-05T22:55:52.983Z,1.58
2023-05-05T22:58:19.914Z,1.83
2023-05-05T23:00:46.426Z,1.35
2023-05-05T23:03:13.651Z,1.23
2023-05-05T23:05:40.139Z,1.75
2023-05-05T23:08:06.611Z,1.35
2023-05-05T23:10:33.103Z,1.98
2023-05-05T23:12:59.700Z,1.65
2023-05-05T23:15:26.304Z,1.38
2023-05-05T23:17:52.865Z,1.70
2023-05-05T23:20:19.569Z,1.33
2023-05-05T23:22:45.975Z,1.50
2023-05-05T23:25:13.778Z,1.58
2023-05-05T23:27:40.995Z,2.08
2023-05-05T23:30:09.110Z,2.40
2023-05-05T23:32:35.683Z,2.30
2023-05-05T23:35:02.292Z,2.28
2023-05-05T23:37:28.782Z,2.13
2023-05-05T23:39:56.376Z,4.35
2023-05-05T23:42:23.981Z,2.45
2023-05-05T23:44:51.793Z,1.70
2023-05-05T23:47:18.269Z,2.25
2023-05-05T23:49:44.798Z,2.15
2023-05-05T23:52:11.465Z,2.28
2023-05-05T23:54:38.042Z,1.88
2023-05-05T23:57:04.664Z,2.03
2023-05-05T23:59:31.138Z,2.22
